Time;durP1;ratioP1;P1;durP2;ratioP2;P2;SDS_P1;SDS_P2;PMS_P1;PMS_P2;Temp;Humidity;BMP_temperature;BMP_pressure;BME280_temperature;BME280_humidity;BME280_pressure;Samples;Min_cycle;Max_cycle;Signal;HPM_P1;HPM_P2
2023/06/22 00:02:05;;;;;;;;;;;;;;;19.84;57.96;101796.25;5011074;28;19925;-73
2023/06/22 00:04:31;;;;;;;;;;;;;;;19.78;57.94;101800.06;4993552;28;20280;-73
2023/06/22 00:06:56;;;;;;;;;;;;;;;19.74;58.34;101803.84;5010268;28;19932;-73
2023/06/22 00:09:21;;;;;;;;;;;;;;;19.70;58.09;101803.09;4993494;28;19921;-73
2023/06/22 00:11:47;;;;;;;;;;;;;;;19.65;58.21;101798.84;5010958;28;19948;-73
2023/06/22 00:14:12;;;;;;;;;;;;;;;19.60;58.50;101796.34;4977216;28;20287;-73
2023/06/22 00:16:37;;;;;;;;;;;;;;;19.56;59.47;101794.75;4993258;28;19993;-73
2023/06/22 00:19:03;;;;;;;;;;;;;;;19.52;58.91;101795.81;5011246;28;19947;-73
2023/06/22 00:21:29;;;;;;;;;;;;;;;19.49;59.16;101788.78;5010884;28;19957;-73
2023/06/22 00:23:54;;;;;;;;;;;;;;;19.48;58.89;101799.59;4977040;28;20295;-73
2023/06/22 00:26:20;;;;;;;;;;;;;;;19.43;59.19;101794.41;4976732;28;19979;-73
2023/06/22 00:28:45;;;;;;;;;;;;;;;19.39;59.35;101794.63;4986075;28;20028;-73
2023/06/22 00:31:11;;;;;;;;;;;;;;;19.34;59.10;101794.84;4992957;28;19926;-73
2023/06/22 00:33:36;;;;;;;;;;;;;;;19.28;58.95;101801.31;4993068;28;19921;-73
2023/06/22 00:36:04;;;;;;;;;;;;;;;19.24;59.85;101793.50;4993398;28;20419;-73
2023/06/22 00:38:30;;;;;;;;;;;;;;;19.19;59.77;101803.53;4992803;28;20008;-73
2023/06/22 00:40:55;;;;;;;;;;;;;;;19.13;59.74;101801.97;5010654;28;19976;-73
2023/06/22 00:43:20;;;;;;;;;;;;;;;19.06;59.63;101801.34;5010473;28;20392;-73
2023/06/22 00:45:47;;;;;;;;;;;;;;;18.99;60.35;101799.91;4992355;28;19965;-73
2023/06/22 00:48:13;;;;;;;;;;;;;;;18.97;60.81;101792.84;5010484;28;20387;-73
2023/06/22 00:50:39;;;;;;;;;;;;;;;18.95;60.88;101789.34;4992046;28;19917;-73
2023/06/22 00:53:08;;;;;;;;;;;;;;;18.92;60.90;101798.41;4992550;28;20236;-73
2023/06/22 00:55:38;;;;;;;;;;;;;;;18.86;61.12;101799.50;4992184;28;20046;-73
2023/06/22 00:58:07;;;;;;;;;;;;;;;18.83;62.06;101794.28;4992632;28;20007;-73
2023/06/22 01:00:33;;;;;;;;;;;;;;;18.84;61.29;101793.34;4992164;28;19921;-73
2023/06/22 01:02:59;;;;;;;;;;;;;;;18.82;60.64;101795.22;4992457;28;19925;-73
2023/06/22 01:05:24;;;;;;;;;;;;;;;18.77;62.22;101796.31;4992487;28;20432;-73
2023/06/22 01:08:09;;;;;;;;;;;;;;;18.74;61.83;101780.31;4991193;28;19959;-73
2023/06/22 01:10:43;;;;;;;;;;;;;;;18.69;62.00;101784.09;4991607;28;19977;-73
2023/06/22 01:13:16;;;;;;;;;;;;;;;18.66;61.71;101768.09;4992431;28;19917;-73
2023/06/22 01:15:49;;;;;;;;;;;;;;;18.62;61.88;101779.00;5009988;28;19921;-73
2023/06/22 01:18:16;;;;;;;;;;;;;;;18.59;62.39;101779.13;5010203;28;19918;-73
2023/06/22 01:20:42;;;;;;;;;;;;;;;18.57;62.70;101775.63;5009842;28;20007;-73
2023/06/22 01:23:20;;;;;;;;;;;;;;;18.54;62.60;101776.63;5009953;28;20447;-73
2023/06/22 01:26:09;;;;;;;;;;;;;;;18.50;62.25;101784.91;4991890;28;19925;-73
2023/06/22 01:28:55;;;;;;;;;;;;;;;18.47;63.01;101788.53;4994784;28;19941;-73
2023/06/22 01:31:22;;;;;;;;;;;;;;;18.47;63.20;101783.19;5009166;28;20367;-73
2023/06/22 01:33:56;;;;;;;;;;;;;;;18.45;63.51;101790.44;5010393;28;19925;-73
2023/06/22 01:36:22;;;;;;;;;;;;;;;18.43;63.13;101782.44;4991699;28;20243;-73
2023/06/22 01:38:48;;;;;;;;;;;;;;;18.40;63.08;101787.06;5010156;28;19914;-73
2023/06/22 01:41:13;;;;;;;;;;;;;;;18.37;64.31;101792.53;4991801;28;20261;-73
2023/06/22 01:43:39;;;;;;;;;;;;;;;18.36;63.00;101782.75;4992250;28;19922;-73
2023/06/22 01:46:05;;;;;;;;;;;;;;;18.32;63.32;101781.97;4974532;28;19918;-73
2023/06/22 01:48:30;;;;;;;;;;;;;;;18.31;63.27;101790.97;4991792;28;19921;-73
2023/06/22 01:50:56;;;;;;;;;;;;;;;18.28;63.61;101791.09;5009675;28;19922;-73
2023/06/22 01:53:22;;;;;;;;;;;;;;;18.25;64.94;101786.72;4978137;28;19926;-73
2023/06/22 01:55:50;;;;;;;;;;;;;;;18.21;63.46;101785.09;4984561;28;19925;-73
2023/06/22 01:58:16;;;;;;;;;;;;;;;18.17;64.03;101780.78;4976029;28;19940;-73
2023/06/22 02:00:47;;;;;;;;;;;;;;;18.17;64.91;101785.25;4991606;28;19921;-73
2023/06/22 02:03:18;;;;;;;;;;;;;;;18.19;64.29;101784.28;5009682;28;20012;-73
2023/06/22 02:05:54;;;;;;;;;;;;;;;18.19;65.00;101778.03;4991911;28;19917;-73
2023/06/22 02:08:28;;;;;;;;;;;;;;;18.18;65.07;101776.31;4991882;28;19933;-73
2023/06/22 02:10:54;;;;;;;;;;;;;;;18.17;65.11;101770.03;4992334;28;19949;-73
2023/06/22 02:13:20;;;;;;;;;;;;;;;18.18;64.68;101777.19;4992107;28;19917;-73
2023/06/22 02:15:47;;;;;;;;;;;;;;;18.17;65.58;101775.41;4992521;28;19921;-73
2023/06/22 02:18:12;;;;;;;;;;;;;;;18.18;65.71;101773.63;5010445;28;19914;-73
2023/06/22 02:20:38;;;;;;;;;;;;;;;18.17;65.85;101772.72;4979937;28;19940;-73
2023/06/22 02:23:04;;;;;;;;;;;;;;;18.15;65.52;101771.03;5013941;28;19918;-73
2023/06/22 02:25:29;;;;;;;;;;;;;;;18.11;67.42;101775.66;4981186;28;20272;-73
2023/06/22 02:27:55;;;;;;;;;;;;;;;18.06;66.02;101766.94;4996026;28;19925;-73
2023/06/22 02:30:20;;;;;;;;;;;;;;;18.04;65.98;101768.78;4995786;28;19933;-73
2023/06/22 02:32:45;;;;;;;;;;;;;;;18.04;66.64;101771.47;5013678;28;19931;-73
2023/06/22 02:35:14;;;;;;;;;;;;;;;18.02;66.70;101762.59;5013571;28;20048;-73
2023/06/22 02:37:41;;;;;;;;;;;;;;;18.01;66.82;101761.75;5001470;28;20395;-73
2023/06/22 02:40:10;;;;;;;;;;;;;;;18.00;66.93;101754.66;5013584;28;19929;-73
2023/06/22 02:42:35;;;;;;;;;;;;;;;18.03;66.87;101767.06;4995551;28;19921;-73
2023/06/22 02:45:01;;;;;;;;;;;;;;;18.04;67.13;101755.38;5013484;28;19923;-73
2023/06/22 02:47:26;;;;;;;;;;;;;;;18.04;67.22;101758.06;4979486;28;20032;-73
2023/06/22 02:49:52;;;;;;;;;;;;;;;18.03;67.35;101750.97;4979515;28;20028;-73
2023/06/22 02:52:18;;;;;;;;;;;;;;;18.02;67.11;101754.56;4995587;28;19978;-73
2023/06/22 02:54:45;;;;;;;;;;;;;;;18.02;67.32;101754.56;4995509;28;20008;-73
2023/06/22 02:57:13;;;;;;;;;;;;;;;18.02;67.53;101754.56;4995448;28;19948;-73
2023/06/22 02:59:41;;;;;;;;;;;;;;;18.01;67.61;101750.16;4995467;28;19993;-73
2023/06/22 03:02:09;;;;;;;;;;;;;;;18.00;68.07;101745.69;5012881;28;19929;-73
2023/06/22 03:04:34;;;;;;;;;;;;;;;17.99;68.64;101747.50;4995465;28;19917;-73
2023/06/22 03:07:01;;;;;;;;;;;;;;;18.02;67.17;101736.66;4993810;28;19925;-73
2023/06/22 03:09:28;;;;;;;;;;;;;;;18.04;67.28;101740.16;4981049;28;20361;-73
2023/06/22 03:11:55;;;;;;;;;;;;;;;18.04;68.11;101726.78;4978925;28;19921;-73
2023/06/22 03:14:23;;;;;;;;;;;;;;;18.02;68.20;101720.59;4995072;28;19968;-73
2023/06/22 03:16:51;;;;;;;;;;;;;;;18.00;68.80;101718.91;4979174;28;20004;-73
2023/06/22 03:19:19;;;;;;;;;;;;;;;17.97;68.33;101722.56;4995459;28;19929;-73
2023/06/22 03:21:44;;;;;;;;;;;;;;;17.94;68.98;101729.88;4978664;28;19922;-73
2023/06/22 03:24:10;;;;;;;;;;;;;;;17.91;68.66;101719.28;5012709;28;20391;-73
2023/06/22 03:26:35;;;;;;;;;;;;;;;17.92;67.90;101724.56;4978752;28;19925;-73
2023/06/22 03:29:00;;;;;;;;;;;;;;;17.95;68.96;101720.88;4994821;28;19975;-73
2023/06/22 03:31:27;;;;;;;;;;;;;;;17.94;69.53;101721.84;4994774;28;20003;-73
2023/06/22 03:33:53;;;;;;;;;;;;;;;17.92;69.25;101716.53;4995426;28;19952;-73
2023/06/22 03:36:19;;;;;;;;;;;;;;;17.89;69.35;101726.50;4997393;28;19913;-73
2023/06/22 03:38:45;;;;;;;;;;;;;;;17.83;68.78;101723.13;4994985;28;19917;-73
2023/06/22 03:41:11;;;;;;;;;;;;;;;17.84;68.89;101719.50;4962847;28;19949;-73
2023/06/22 03:43:36;;;;;;;;;;;;;;;17.83;69.18;101722.25;5004917;28;19971;-73
2023/06/22 03:46:03;;;;;;;;;;;;;;;17.82;69.84;101724.03;5012272;28;20488;-73
2023/06/22 03:48:28;;;;;;;;;;;;;;;17.81;69.85;101721.44;4994493;28;19929;-73
2023/06/22 03:50:53;;;;;;;;;;;;;;;17.80;69.70;101720.56;5012184;28;19917;-73
2023/06/22 03:53:19;;;;;;;;;;;;;;;17.80;70.24;101715.22;4994551;28;19940;-73
2023/06/22 03:55:49;;;;;;;;;;;;;;;17.79;70.12;101712.53;4994243;28;19929;-74
2023/06/22 03:58:14;;;;;;;;;;;;;;;17.80;68.21;101708.97;5008523;28;19921;-73
2023/06/22 04:00:39;;;;;;;;;;;;;;;17.81;69.65;101714.28;4994098;28;19929;-74
2023/06/22 04:03:07;;;;;;;;;;;;;;;17.82;70.38;101710.66;5011900;28;20090;-74
2023/06/22 04:05:32;;;;;;;;;;;;;;;17.82;70.07;101710.66;5011858;28;19944;-74
2023/06/22 04:07:58;;;;;;;;;;;;;;;17.82;70.65;101709.78;4993264;28;20376;-74
2023/06/22 04:10:23;;;;;;;;;;;;;;;17.81;71.01;101700.88;5010189;28;19976;-74
2023/06/22 04:12:48;;;;;;;;;;;;;;;17.82;71.55;101696.38;5011782;28;19921;-74
2023/06/22 04:15:14;;;;;;;;;;;;;;;17.84;71.93;101705.25;4994074;28;19921;-74
2023/06/22 04:17:39;;;;;;;;;;;;;;;17.88;72.31;101703.31;5011799;28;19972;-73
2023/06/22 04:20:05;;;;;;;;;;;;;;;17.90;72.12;101704.13;5011538;28;19995;-74
2023/06/22 04:22:30;;;;;;;;;;;;;;;17.93;71.71;101704.03;5011315;28;19930;-74
2023/06/22 04:24:56;;;;;;;;;;;;;;;17.95;72.46;101702.13;5011234;28;19933;-74
2023/06/22 04:27:23;;;;;;;;;;;;;;;17.98;72.14;101704.72;4977554;28;19979;-74
2023/06/22 04:29:48;;;;;;;;;;;;;;;17.99;71.91;101704.63;5011261;28;19929;-73
2023/06/22 04:32:17;;;;;;;;;;;;;;;17.99;72.35;101710.00;5011377;28;20333;-74
2023/06/22 04:34:43;;;;;;;;;;;;;;;17.99;71.75;101707.31;5011047;28;19914;-74
2023/06/22 04:37:08;;;;;;;;;;;;;;;18.00;71.73;101697.47;5010779;28;19929;-74
2023/06/22 04:39:34;;;;;;;;;;;;;;;18.01;71.39;101708.13;4993222;28;19917;-74
2023/06/22 04:42:00;;;;;;;;;;;;;;;18.06;72.38;101705.28;5010048;28;20299;-74
2023/06/22 04:44:25;;;;;;;;;;;;;;;18.10;71.08;101714.97;4973723;28;19929;-74
2023/06/22 04:46:59;;;;;;;;;;;;;;;18.14;71.32;101719.25;5009500;28;19922;-74
2023/06/22 04:49:32;;;;;;;;;;;;;;;18.20;72.38;101713.66;5010824;28;20059;-74
2023/06/22 04:52:01;;;;;;;;;;;;;;;18.27;71.92;101711.56;5010445;28;19921;-73
2023/06/22 04:54:26;;;;;;;;;;;;;;;18.32;72.04;101714.06;5010702;28;19913;-73
2023/06/22 04:56:58;;;;;;;;;;;;;;;18.38;73.87;101714.72;5010187;28;20030;-74
2023/06/22 04:59:28;;;;;;;;;;;;;;;18.45;72.70;101712.66;5010731;28;19996;-74
2023/06/22 05:02:01;;;;;;;;;;;;;;;18.52;71.98;101716.84;5010570;28;19932;-74
2023/06/22 05:04:34;;;;;;;;;;;;;;;18.62;72.72;101712.84;5010345;28;19917;-74
2023/06/22 05:07:02;;;;;;;;;;;;;;;18.73;72.21;101704.34;5009419;28;20003;-74
2023/06/22 05:09:28;;;;;;;;;;;;;;;18.81;72.39;101704.91;4992475;28;19929;-76
2023/06/22 05:11:54;;;;;;;;;;;;;;;18.88;72.30;101702.84;4992600;28;19975;-76
2023/06/22 05:14:19;;;;;;;;;;;;;;;18.96;70.93;101710.56;5010466;28;19922;-76
2023/06/22 05:16:45;;;;;;;;;;;;;;;19.07;72.49;101708.28;4992350;28;19932;-76
2023/06/22 05:19:11;;;;;;;;;;;;;;;19.19;71.80;101713.13;5010456;28;19948;-74
2023/06/22 05:21:36;;;;;;;;;;;;;;;19.28;71.56;101714.50;5010328;28;19968;-74
2023/06/22 05:24:02;;;;;;;;;;;;;;;19.34;71.60;101708.88;5010368;28;19925;-74
2023/06/22 05:26:29;;;;;;;;;;;;;;;19.39;71.92;101706.88;4992717;28;19925;-74
2023/06/22 05:28:54;;;;;;;;;;;;;;;19.44;72.96;101703.97;5010568;28;19924;-74
2023/06/22 05:31:20;;;;;;;;;;;;;;;19.46;70.04;101702.97;4992706;28;20012;-74
2023/06/22 05:33:46;;;;;;;;;;;;;;;19.50;73.06;101704.53;4992855;28;19917;-74
2023/06/22 05:36:15;;;;;;;;;;;;;;;19.54;72.13;101707.97;4994281;28;20074;-74
2023/06/22 05:38:41;;;;;;;;;;;;;;;19.54;71.59;101708.84;5010730;28;20004;-74
2023/06/22 05:41:06;;;;;;;;;;;;;;;19.55;71.75;101709.72;4992393;28;19926;-73
2023/06/22 05:43:32;;;;;;;;;;;;;;;19.57;70.92;101705.16;5010538;28;19917;-74
2023/06/22 05:45:58;;;;;;;;;;;;;;;19.61;70.91;101705.88;4992955;28;19929;-74
2023/06/22 05:48:23;;;;;;;;;;;;;;;19.67;70.85;101709.19;5010630;28;19984;-74
2023/06/22 05:50:48;;;;;;;;;;;;;;;19.78;71.14;101700.63;5010383;28;19955;-74
2023/06/22 05:53:14;;;;;;;;;;;;;;;19.89;71.09;101702.81;5007615;28;19917;-73
2023/06/22 05:55:40;;;;;;;;;;;;;;;19.96;71.16;101702.44;4989416;28;19940;-73
2023/06/22 05:58:05;;;;;;;;;;;;;;;20.00;71.13;101694.22;5000793;28;19957;-73
2023/06/22 06:00:31;;;;;;;;;;;;;;;20.02;71.19;101697.72;4968661;28;19922;-76
2023/06/22 06:02:56;;;;;;;;;;;;;;;20.05;70.19;101693.06;4966562;28;19926;-73
2023/06/22 06:05:22;;;;;;;;;;;;;;;20.08;70.81;101697.41;4997246;28;20005;-74
2023/06/22 06:07:48;;;;;;;;;;;;;;;20.11;70.35;101700.84;5009078;28;20052;-74
2023/06/22 06:10:13;;;;;;;;;;;;;;;20.16;69.59;101708.69;4979406;28;20051;-73
2023/06/22 06:12:39;;;;;;;;;;;;;;;20.24;70.87;101705.63;4995429;28;20383;-74
2023/06/22 06:15:05;;;;;;;;;;;;;;;20.34;70.65;101693.47;4999251;28;19917;-74
2023/06/22 06:17:30;;;;;;;;;;;;;;;20.42;70.31;101702.03;4995269;28;19929;-74
2023/06/22 06:19:56;;;;;;;;;;;;;;;20.50;70.79;101696.25;5011545;28;19921;-74
2023/06/22 06:22:23;;;;;;;;;;;;;;;20.59;70.20;101682.38;5008500;28;19929;-74
2023/06/22 06:24:48;;;;;;;;;;;;;;;20.70;69.26;101692.63;4989410;28;19976;-74
2023/06/22 06:27:14;;;;;;;;;;;;;;;20.77;69.83;101692.25;5002019;28;19976;-74
2023/06/22 06:29:39;;;;;;;;;;;;;;;20.88;70.47;101693.50;4995268;28;19922;-74
2023/06/22 06:32:05;;;;;;;;;;;;;;;20.96;69.48;101694.81;5005475;28;20476;-76
2023/06/22 06:34:30;;;;;;;;;;;;;;;21.06;68.99;101692.53;4979777;28;19921;-76
2023/06/22 06:36:55;;;;;;;;;;;;;;;21.13;68.42;101690.41;5008133;28;19921;-76
2023/06/22 06:39:21;;;;;;;;;;;;;;;21.21;69.02;101688.16;4976038;28;19921;-77
2023/06/22 06:41:46;;;;;;;;;;;;;;;21.26;68.31;101692.38;4995412;28;19933;-76
2023/06/22 06:44:14;;;;;;;;;;;;;;;21.31;69.15;101692.09;4979620;28;19925;-77
2023/06/22 06:46:39;;;;;;;;;;;;;;;21.36;68.28;101691.84;5013518;28;20291;-76
2023/06/22 06:49:05;;;;;;;;;;;;;;;21.40;68.89;101686.25;4995597;28;19927;-76
2023/06/22 06:51:30;;;;;;;;;;;;;;;21.45;69.76;101683.31;4995683;28;19918;-76
2023/06/22 06:53:56;;;;;;;;;;;;;;;21.48;68.15;101694.78;5013574;28;19960;-76
2023/06/22 06:56:21;;;;;;;;;;;;;;;21.58;68.73;101691.59;5012661;28;19976;-76
2023/06/22 06:58:47;;;;;;;;;;;;;;;21.67;68.32;101693.81;4995778;28;20340;-76
2023/06/22 07:01:12;;;;;;;;;;;;;;;21.74;67.94;101695.22;4995463;28;20237;-76
2023/06/22 07:03:38;;;;;;;;;;;;;;;21.82;67.55;101689.38;4995717;28;20384;-76
2023/06/22 07:06:03;;;;;;;;;;;;;;;21.92;68.13;101692.44;4976650;28;19925;-76
2023/06/22 07:08:29;;;;;;;;;;;;;;;21.97;67.54;101685.81;5013263;28;19918;-76
2023/06/22 07:10:54;;;;;;;;;;;;;;;22.09;67.48;101681.56;4995692;28;20005;-76
2023/06/22 07:13:20;;;;;;;;;;;;;;;22.23;67.62;101683.50;5013039;28;20345;-76
2023/06/22 07:15:45;;;;;;;;;;;;;;;22.37;67.46;101677.31;4995284;28;19944;-76
2023/06/22 07:18:10;;;;;;;;;;;;;;;22.47;66.85;101681.22;5013253;28;19982;-77
2023/06/22 07:20:36;;;;;;;;;;;;;;;22.57;66.26;101670.75;4979160;28;19983;-77
2023/06/22 07:23:01;;;;;;;;;;;;;;;22.66;66.68;101678.31;4995180;28;19933;-77
2023/06/22 07:25:27;;;;;;;;;;;;;;;22.71;66.19;101668.97;5012631;28;19925;-76
2023/06/22 07:28:02;;;;;;;;;;;;;;;22.79;66.01;101665.78;5012858;28;19945;-77
2023/06/22 07:30:28;;;;;;;;;;;;;;;22.87;66.56;101666.22;5012709;28;19921;-76
2023/06/22 07:32:53;;;;;;;;;;;;;;;22.95;65.50;101663.06;5012939;28;20020;-76
2023/06/22 07:35:19;;;;;;;;;;;;;;;23.03;66.32;101658.06;4995047;28;19917;-76
2023/06/22 07:37:44;;;;;;;;;;;;;;;23.08;66.56;101655.97;4978713;28;19921;-77
2023/06/22 07:40:10;;;;;;;;;;;;;;;23.10;65.56;101662.16;5012759;28;19957;-76
2023/06/22 07:42:35;;;;;;;;;;;;;;;23.10;65.59;101667.53;4994652;28;19926;-76
2023/06/22 07:45:01;;;;;;;;;;;;;;;23.12;65.51;101665.63;5012583;28;19921;-76
2023/06/22 07:47:28;;;;;;;;;;;;;;;23.15;64.73;101656.47;5012373;28;19918;-76
2023/06/22 07:49:54;;;;;;;;;;;;;;;23.17;64.97;101660.81;4978011;28;20274;-76
2023/06/22 07:52:20;;;;;;;;;;;;;;;23.20;65.53;101650.78;5012168;28;19924;-76
2023/06/22 07:54:46;;;;;;;;;;;;;;;23.24;65.38;101642.34;4994067;28;19925;-76
2023/06/22 07:57:11;;;;;;;;;;;;;;;23.28;65.01;101638.50;5012186;28;20296;-77
2023/06/22 07:59:37;;;;;;;;;;;;;;;23.33;65.28;101632.81;5011785;28;19921;-76
2023/06/22 08:02:03;;;;;;;;;;;;;;;23.36;64.81;101627.22;5012209;28;19925;-76
2023/06/22 08:04:30;;;;;;;;;;;;;;;23.42;65.07;101620.53;4994389;28;19929;-76
2023/06/22 08:06:56;;;;;;;;;;;;;;;23.48;64.94;101617.47;5010139;28;19928;-76
2023/06/22 08:09:21;;;;;;;;;;;;;;;23.52;65.05;101613.59;4994137;28;19913;-76
2023/06/22 08:11:47;;;;;;;;;;;;;;;23.54;65.38;101606.25;4993623;28;19932;-76
2023/06/22 08:14:13;;;;;;;;;;;;;;;23.56;65.96;101598.91;5011800;28;19929;-78
2023/06/22 08:16:38;;;;;;;;;;;;;;;23.58;66.28;101591.56;4992140;28;20272;-76
2023/06/22 08:19:03;;;;;;;;;;;;;;;23.58;65.92;101594.28;5009172;28;19961;-75
2023/06/22 08:21:29;;;;;;;;;;;;;;;23.54;65.56;101595.44;5007374;28;19925;-75
2023/06/22 08:23:54;;;;;;;;;;;;;;;23.50;66.01;101585.78;5011621;28;19960;-76
2023/06/22 08:26:20;;;;;;;;;;;;;;;23.47;66.38;101583.31;4997123;28;19975;-76
2023/06/22 08:28:46;;;;;;;;;;;;;;;23.43;65.87;101579.91;5009635;28;20280;-77
2023/06/22 08:31:12;;;;;;;;;;;;;;;23.40;67.08;101574.72;5004729;28;19921;-77
2023/06/22 08:33:37;;;;;;;;;;;;;;;23.40;66.37;101572.88;5011119;28;20343;-77
2023/06/22 08:36:04;;;;;;;;;;;;;;;23.39;66.90;101572.94;4993785;28;19964;-77
2023/06/22 08:38:29;;;;;;;;;;;;;;;23.38;67.01;101574.78;4993090;28;19940;-77
2023/06/22 08:40:55;;;;;;;;;;;;;;;23.38;66.44;101577.50;4993413;28;19922;-77
2023/06/22 08:43:20;;;;;;;;;;;;;;;23.39;66.22;101587.34;5011140;28;19979;-77
2023/06/22 08:45:45;;;;;;;;;;;;;;;23.41;66.41;101589.94;4997676;28;19922;-78
2023/06/22 08:48:11;;;;;;;;;;;;;;;23.42;66.37;101589.00;4993103;28;20024;-78
2023/06/22 08:50:36;;;;;;;;;;;;;;;23.45;66.85;101585.22;4977119;28;19925;-77
2023/06/22 08:53:02;;;;;;;;;;;;;;;23.46;66.61;101586.94;4988438;28;19921;-77
2023/06/22 08:55:27;;;;;;;;;;;;;;;23.47;65.97;101583.31;4998642;28;20385;-77
2023/06/22 08:57:52;;;;;;;;;;;;;;;23.45;66.82;101580.69;5000388;28;19922;-78
2023/06/22 09:00:19;;;;;;;;;;;;;;;23.41;66.29;101581.84;4993083;28;20323;-77
2023/06/22 09:02:46;;;;;;;;;;;;;;;23.33;65.97;101570.66;5009338;28;20280;-77
2023/06/22 09:05:11;;;;;;;;;;;;;;;23.26;66.07;101572.88;5007343;28;20106;-77
2023/06/22 09:07:36;;;;;;;;;;;;;;;23.24;65.95;101568.53;4976317;28;20352;-78
2023/06/22 09:10:04;;;;;;;;;;;;;;;23.22;65.58;101575.88;5010283;28;19975;-77
2023/06/22 09:12:30;;;;;;;;;;;;;;;23.18;65.51;101565.25;5007384;28;19925;-78
2023/06/22 09:14:56;;;;;;;;;;;;;;;23.14;65.40;101565.53;4990584;28;19925;-78
2023/06/22 09:17:25;;;;;;;;;;;;;;;23.09;64.68;101570.38;5007544;28;19929;-78
2023/06/22 09:19:50;;;;;;;;;;;;;;;23.06;64.42;101562.47;4980194;28;20008;-78
2023/06/22 09:22:16;;;;;;;;;;;;;;;23.00;64.03;101557.44;4991747;28;20013;-78
2023/06/22 09:24:41;;;;;;;;;;;;;;;22.98;62.69;101559.41;4985216;28;19975;-78
2023/06/22 09:27:07;;;;;;;;;;;;;;;22.93;63.50;101554.25;4977032;28;20020;-78
2023/06/22 09:29:33;;;;;;;;;;;;;;;22.90;63.33;101554.44;4989880;28;20378;-78
2023/06/22 09:31:59;;;;;;;;;;;;;;;22.88;63.38;101557.22;5002215;28;19971;-77
2023/06/22 09:34:24;;;;;;;;;;;;;;;22.86;63.29;101551.03;4999202;28;19926;-77
2023/06/22 09:36:50;;;;;;;;;;;;;;;22.84;63.85;101555.66;5010712;28;19929;-78
2023/06/22 09:39:15;;;;;;;;;;;;;;;22.85;63.69;101552.03;5017048;28;20007;-77
2023/06/22 09:41:40;;;;;;;;;;;;;;;22.84;63.62;101554.81;4982783;28;19980;-77
2023/06/22 09:44:06;;;;;;;;;;;;;;;22.82;63.78;101551.31;4999044;28;19918;-76
2023/06/22 09:46:31;;;;;;;;;;;;;;;22.81;63.77;101552.31;5017084;28;19933;-77
2023/06/22 09:48:56;;;;;;;;;;;;;;;22.79;63.63;101552.38;4999182;28;20147;-77
2023/06/22 09:51:23;;;;;;;;;;;;;;;22.80;63.57;101550.53;5016724;28;20407;-77
2023/06/22 09:53:49;;;;;;;;;;;;;;;22.79;63.39;101546.97;4999284;28;19921;-77
2023/06/22 09:56:15;;;;;;;;;;;;;;;22.80;63.50;101556.84;5016584;28;19933;-77
2023/06/22 09:58:41;;;;;;;;;;;;;;;22.82;63.76;101548.63;5016974;28;19922;-77
2023/06/22 10:01:07;;;;;;;;;;;;;;;22.83;63.87;101543.16;5016815;28;20248;-77
2023/06/22 10:03:32;;;;;;;;;;;;;;;22.83;63.63;101544.97;5016847;28;20024;-77
2023/06/22 10:05:57;;;;;;;;;;;;;;;22.83;64.18;101536.88;4997335;28;20395;-77
2023/06/22 10:08:23;;;;;;;;;;;;;;;22.84;64.24;101539.47;5017040;28;20466;-79
2023/06/22 10:10:48;;;;;;;;;;;;;;;22.81;63.52;101541.50;5017287;28;19925;-79
2023/06/22 10:13:14;;;;;;;;;;;;;;;22.78;63.26;101542.56;5017359;28;19995;-79
2023/06/22 10:15:40;;;;;;;;;;;;;;;22.81;63.43;101546.91;5017153;28;19930;-79
2023/06/22 10:18:05;;;;;;;;;;;;;;;22.83;63.66;101539.56;5017313;28;19917;-79
2023/06/22 10:20:30;;;;;;;;;;;;;;;22.85;63.22;101535.81;5017240;28;19953;-79
2023/06/22 10:22:56;;;;;;;;;;;;;;;22.86;63.31;101539.38;4999432;28;20024;-79
2023/06/22 10:25:21;;;;;;;;;;;;;;;22.87;63.02;101536.59;5017181;28;19921;-79
2023/06/22 10:27:48;;;;;;;;;;;;;;;22.88;63.31;101540.16;5016599;28;20397;-79
2023/06/22 10:30:14;;;;;;;;;;;;;;;22.89;62.93;101540.03;4999416;28;19921;-80
2023/06/22 10:32:39;;;;;;;;;;;;;;;22.89;63.21;101533.78;4999457;28;20004;-78
2023/06/22 10:35:05;;;;;;;;;;;;;;;22.91;63.33;101537.25;5017056;28;19988;-79
2023/06/22 10:37:30;;;;;;;;;;;;;;;22.94;63.63;101539.75;4999104;28;19913;-76
2023/06/22 10:39:56;;;;;;;;;;;;;;;22.95;63.06;101539.69;4995951;28;19922;-77
2023/06/22 10:42:21;;;;;;;;;;;;;;;22.96;63.31;101532.44;5013468;28;19971;-76
2023/06/22 10:44:46;;;;;;;;;;;;;;;22.98;63.26;101540.50;4979626;28;19984;-76
2023/06/22 10:47:12;;;;;;;;;;;;;;;22.95;63.99;101545.06;4993211;28;19929;-78
2023/06/22 10:49:38;;;;;;;;;;;;;;;22.94;63.75;101542.47;5010689;28;19922;-79
2023/06/22 10:52:03;;;;;;;;;;;;;;;22.93;63.80;101546.13;4994223;28;19975;-78
2023/06/22 10:54:29;;;;;;;;;;;;;;;22.90;64.54;101549.03;4996226;28;19940;-78
2023/06/22 10:56:54;;;;;;;;;;;;;;;22.87;64.35;101554.59;4997501;28;19930;-78
2023/06/22 10:59:21;;;;;;;;;;;;;;;22.82;63.84;101562.13;5010391;28;19918;-79
2023/06/22 11:01:46;;;;;;;;;;;;;;;22.76;64.32;101571.47;5012947;28;19925;-76
2023/06/22 11:04:12;;;;;;;;;;;;;;;22.71;64.60;101569.06;4984235;28;19929;-75
2023/06/22 11:06:37;;;;;;;;;;;;;;;22.67;65.59;101567.50;4992807;28;19939;-74
2023/06/22 11:09:04;;;;;;;;;;;;;;;22.65;64.55;101572.16;5012620;28;19929;-75
2023/06/22 11:11:29;;;;;;;;;;;;;;;22.59;66.03;101563.56;5011190;28;20279;-75
2023/06/22 11:13:54;;;;;;;;;;;;;;;22.53;66.52;101570.19;5011346;28;19922;-74
2023/06/22 11:16:20;;;;;;;;;;;;;;;22.45;65.54;101567.06;4994446;28;19933;-75
2023/06/22 11:18:45;;;;;;;;;;;;;;;22.37;65.39;101567.53;4990486;28;19921;-76
2023/06/22 11:21:10;;;;;;;;;;;;;;;22.33;65.65;101568.69;4991704;28;19918;-74
2023/06/22 11:23:36;;;;;;;;;;;;;;;22.28;67.21;101563.56;5012917;28;19968;-75
2023/06/22 11:26:01;;;;;;;;;;;;;;;22.22;66.62;101561.22;5012776;28;19929;-75
2023/06/22 11:28:27;;;;;;;;;;;;;;;22.19;66.75;101571.31;5012894;28;20411;-75
2023/06/22 11:30:53;;;;;;;;;;;;;;;22.18;66.25;101585.75;4995157;28;20000;-76
2023/06/22 11:33:18;;;;;;;;;;;;;;;22.17;66.43;101584.88;4995284;28;20008;-76
2023/06/22 11:35:44;;;;;;;;;;;;;;;22.15;66.33;101580.53;5012521;28;19995;-76
2023/06/22 11:38:09;;;;;;;;;;;;;;;22.10;67.33;101586.19;4992555;28;19971;-76
2023/06/22 11:40:35;;;;;;;;;;;;;;;22.05;68.19;101581.06;5010974;28;19984;-76
2023/06/22 11:43:00;;;;;;;;;;;;;;;21.97;67.84;101582.50;4990801;28;19925;-76
2023/06/22 11:45:25;;;;;;;;;;;;;;;21.88;69.77;101582.06;5012721;28;19921;-76
2023/06/22 11:47:51;;;;;;;;;;;;;;;21.79;69.04;101585.28;5005254;28;20019;-76
2023/06/22 11:50:16;;;;;;;;;;;;;;;21.74;69.47;101579.28;5009692;28;20020;-77
2023/06/22 11:52:42;;;;;;;;;;;;;;;21.70;68.83;101580.41;4993303;28;19918;-77
2023/06/22 11:55:07;;;;;;;;;;;;;;;21.56;71.42;101574.94;4999780;28;19951;-76
2023/06/22 11:57:36;;;;;;;;;;;;;;;21.41;72.49;101576.66;5011721;28;19929;-77
2023/06/22 12:00:06;;;;;;;;;;;;;;;21.29;72.17;101577.28;4985726;28;19952;-76
2023/06/22 12:02:32;;;;;;;;;;;;;;;21.17;72.22;101570.78;4994406;28;19952;-76
2023/06/22 12:04:58;;;;;;;;;;;;;;;21.07;71.84;101564.13;5004101;28;19945;-76
2023/06/22 12:07:23;;;;;;;;;;;;;;;20.95;72.68;101560.31;5011196;28;20024;-76
2023/06/22 12:09:48;;;;;;;;;;;;;;;20.82;72.62;101555.59;5011615;28;19974;-76
2023/06/22 12:12:14;;;;;;;;;;;;;;;20.73;74.11;101550.69;4994603;28;19929;-75
2023/06/22 12:14:39;;;;;;;;;;;;;;;20.64;74.03;101543.09;4994509;28;19922;-75
2023/06/22 12:17:05;;;;;;;;;;;;;;;20.55;74.08;101538.22;5009222;28;20307;-76
2023/06/22 12:19:30;;;;;;;;;;;;;;;20.50;74.17;101542.91;5012021;28;19929;-75
2023/06/22 12:21:55;;;;;;;;;;;;;;;20.46;74.22;101544.03;5011351;28;20391;-76
2023/06/22 12:24:21;;;;;;;;;;;;;;;20.45;74.60;101543.16;5011715;28;19927;-75
2023/06/22 12:26:46;;;;;;;;;;;;;;;20.44;74.27;101533.34;4994039;28;19993;-76
2023/06/22 12:29:11;;;;;;;;;;;;;;;20.39;75.20;101533.56;5011686;28;19928;-76
2023/06/22 12:31:39;;;;;;;;;;;;;;;20.34;76.17;101534.78;4994398;28;19947;-75